Time;durP1;ratioP1;P1;durP2;ratioP2;P2;SDS_P1;SDS_P2;PMS_P1;PMS_P2;Temp;Humidity;BMP_temperature;BMP_pressure;BME280_temperature;BME280_humidity;BME280_pressure;Samples;Min_cycle;Max_cycle;Signal;HPM_P1;HPM_P2
2021/04/21 00:01:31;;;;;;;12.90;5.25;;;;;;;;;;5114785;28;20110;-85
2021/04/21 00:03:57;;;;;;;7.72;4.90;;;;;;;;;;5131974;28;20038;-84
2021/04/21 00:06:23;;;;;;;8.45;5.40;;;;;;;;;;5131825;28;20058;-84
2021/04/21 00:08:50;;;;;;;9.10;5.20;;;;;;;;;;5131812;28;20466;-84
2021/04/21 00:11:17;;;;;;;9.75;4.95;;;;;;;;;;5131808;28;20035;-85
2021/04/21 00:13:43;;;;;;;8.10;4.88;;;;;;;;;;5131712;28;20068;-84
2021/04/21 00:16:09;;;;;;;10.63;5.82;;;;;;;;;;5131628;28;20068;-85
2021/04/21 00:18:35;;;;;;;11.40;5.60;;;;;;;;;;5131812;28;20110;-85
2021/04/21 00:21:01;;;;;;;10.65;5.47;;;;;;;;;;5132952;27;20043;-85
2021/04/21 00:23:27;;;;;;;9.10;5.45;;;;;;;;;;5131756;28;20070;-85
2021/04/21 00:25:54;;;;;;;9.63;5.40;;;;;;;;;;5131828;28;20106;-85
2021/04/21 00:28:21;;;;;;;8.75;5.38;;;;;;;;;;5131675;28;20039;-86
2021/04/21 00:30:47;;;;;;;9.80;5.15;;;;;;;;;;5131663;28;20031;-85
2021/04/21 00:33:13;;;;;;;8.55;5.25;;;;;;;;;;5131687;28;20046;-86
2021/04/21 00:35:40;;;;;;;8.85;5.25;;;;;;;;;;5131501;28;20047;-84
2021/04/21 00:38:10;;;;;;;12.25;5.72;;;;;;;;;;5131478;28;20067;-84
2021/04/21 00:40:44;;;;;;;9.32;6.55;;;;;;;;;;5132725;27;20040;-84
2021/04/21 00:43:12;;;;;;;5.68;4.88;;;;;;;;;;5131533;28;20091;-84
2021/04/21 00:45:40;;;;;;;9.85;4.97;;;;;;;;;;5131571;28;20569;-84
2021/04/21 00:48:27;;;;;;;8.50;4.80;;;;;;;;;;5131375;28;20542;-85
2021/04/21 00:50:56;;;;;;;8.90;5.72;;;;;;;;;;5133931;27;20031;-84
2021/04/21 00:53:28;;;;;;;7.88;5.25;;;;;;;;;;5135434;27;20031;-84
2021/04/21 00:55:54;;;;;;;7.78;5.07;;;;;;;;;;5135295;27;20043;-84
2021/04/21 00:58:31;;;;;;;10.32;5.35;;;;;;;;;;5136375;27;20052;-84
2021/04/21 01:00:57;;;;;;;9.10;5.32;;;;;;;;;;5135319;27;20063;-84
2021/04/21 01:03:23;;;;;;;8.85;6.13;;;;;;;;;;5135159;27;20038;-84
2021/04/21 01:06:06;;;;;;;9.23;4.97;;;;;;;;;;5134935;27;20080;-84
2021/04/21 01:08:33;;;;;;;9.40;5.55;;;;;;;;;;5135184;27;20059;-83
2021/04/21 01:11:00;;;;;;;10.25;5.97;;;;;;;;;;5136253;27;20031;-84
2021/04/21 01:13:29;;;;;;;11.93;5.60;;;;;;;;;;5136207;27;20114;-84
2021/04/21 01:15:55;;;;;;;9.70;5.60;;;;;;;;;;5135057;27;20031;-85
2021/04/21 01:18:21;;;;;;;10.07;5.60;;;;;;;;;;5134758;27;20489;-85
2021/04/21 01:20:58;;;;;;;7.78;4.90;;;;;;;;;;5134808;27;20071;-84
2021/04/21 01:23:33;;;;;;;9.18;5.63;;;;;;;;;;5134870;27;20375;-84
2021/04/21 01:26:02;;;;;;;7.97;5.35;;;;;;;;;;5134639;27;20027;-84
2021/04/21 01:28:28;;;;;;;8.50;5.00;;;;;;;;;;5135953;27;20042;-83
2021/04/21 01:30:55;;;;;;;7.93;5.15;;;;;;;;;;5134714;27;20043;-84
2021/04/21 01:33:21;;;;;;;9.85;5.10;;;;;;;;;;5134554;27;20067;-84
2021/04/21 01:35:53;;;;;;;7.57;4.82;;;;;;;;;;5117270;27;20047;-84
2021/04/21 01:38:19;;;;;;;10.15;5.28;;;;;;;;;;5117135;27;20118;-84
2021/04/21 01:40:45;;;;;;;9.00;5.05;;;;;;;;;;5134436;27;20035;-85
2021/04/21 01:43:21;;;;;;;9.57;4.75;;;;;;;;;;5117222;27;20043;-85
2021/04/21 01:45:51;;;;;;;8.70;5.07;;;;;;;;;;5134389;27;20118;-85
2021/04/21 01:48:22;;;;;;;9.02;4.63;;;;;;;;;;5134279;27;20035;-85
2021/04/21 01:50:48;;;;;;;6.22;4.32;;;;;;;;;;5135283;27;20065;-82
2021/04/21 01:53:34;;;;;;;7.82;4.28;;;;;;;;;;5134140;27;20059;-85
2021/04/21 01:56:04;;;;;;;13.55;5.55;;;;;;;;;;5135151;27;20068;-85
2021/04/21 01:58:30;;;;;;;9.45;5.28;;;;;;;;;;5133927;27;20035;-85
2021/04/21 02:01:04;;;;;;;9.75;5.10;;;;;;;;;;5135257;27;20046;-85
2021/04/21 02:03:36;;;;;;;8.68;4.90;;;;;;;;;;5133627;27;20035;-85
2021/04/21 02:06:16;;;;;;;9.05;5.53;;;;;;;;;;5135088;27;20042;-84
2021/04/21 02:08:42;;;;;;;9.45;4.85;;;;;;;;;;5133876;27;20058;-84
2021/04/21 02:11:11;;;;;;;8.20;5.07;;;;;;;;;;5134929;27;20474;-84
2021/04/21 02:13:37;;;;;;;6.32;4.03;;;;;;;;;;5134916;27;20047;-84
2021/04/21 02:16:03;;;;;;;8.30;5.18;;;;;;;;;;5133547;27;20497;-84
2021/04/21 02:18:35;;;;;;;9.23;4.97;;;;;;;;;;5116460;27;20039;-84
2021/04/21 02:21:34;;;;;;;7.43;5.10;;;;;;;;;;5134844;27;20091;-84
2021/04/21 02:24:05;;;;;;;8.38;4.85;;;;;;;;;;5133776;27;20549;-84
2021/04/21 02:26:36;;;;;;;8.30;5.20;;;;;;;;;;5133468;27;20070;-84
2021/04/21 02:29:04;;;;;;;11.35;5.80;;;;;;;;;;5116535;27;20064;-84
2021/04/21 02:31:49;;;;;;;7.80;5.20;;;;;;;;;;5133529;27;20039;-84
2021/04/21 02:34:34;;;;;;;9.30;5.75;;;;;;;;;;5134334;27;20035;-84
2021/04/21 02:37:09;;;;;;;7.88;5.18;;;;;;;;;;5133337;27;20470;-84
2021/04/21 02:39:52;;;;;;;9.90;5.82;;;;;;;;;;5134426;27;20440;-84
2021/04/21 02:42:24;;;;;;;8.38;5.70;;;;;;;;;;5133297;27;20100;-84
2021/04/21 02:45:09;;;;;;;8.60;5.30;;;;;;;;;;5133068;27;20087;-84
2021/04/21 02:47:38;;;;;;;9.73;5.22;;;;;;;;;;5133008;27;20042;-83
2021/04/21 02:50:04;;;;;;;9.88;5.00;;;;;;;;;;5134247;27;20083;-84
2021/04/21 02:52:49;;;;;;;7.32;5.78;;;;;;;;;;5134291;27;20050;-84
2021/04/21 02:55:15;;;;;;;9.25;5.40;;;;;;;;;;5134033;27;20041;-83
2021/04/21 02:57:49;;;;;;;9.75;5.65;;;;;;;;;;5133969;27;20100;-83
2021/04/21 03:00:28;;;;;;;15.25;6.30;;;;;;;;;;5132766;27;20031;-84
2021/04/21 03:03:06;;;;;;;12.55;7.38;;;;;;;;;;5115746;27;20070;-84
2021/04/21 03:05:33;;;;;;;7.80;5.45;;;;;;;;;;5132671;27;20126;-84
2021/04/21 03:08:17;;;;;;;11.15;6.43;;;;;;;;;;5133848;27;20442;-84
2021/04/21 03:10:45;;;;;;;9.98;6.35;;;;;;;;;;5133823;27;20035;-84
2021/04/21 03:13:14;;;;;;;8.40;5.63;;;;;;;;;;5115054;28;20073;-84
2021/04/21 03:15:41;;;;;;;13.25;6.40;;;;;;;;;;5132311;27;20087;-84
2021/04/21 03:18:07;;;;;;;11.52;6.25;;;;;;;;;;5132370;27;20122;-84
2021/04/21 03:20:33;;;;;;;11.88;6.63;;;;;;;;;;5132504;27;20112;-83
2021/04/21 03:23:00;;;;;;;12.43;7.10;;;;;;;;;;5132557;27;20031;-85
2021/04/21 03:25:29;;;;;;;11.52;6.82;;;;;;;;;;5132362;27;20035;-85
2021/04/21 03:27:56;;;;;;;14.07;7.43;;;;;;;;;;5133453;27;20043;-85
2021/04/21 03:30:23;;;;;;;12.68;6.90;;;;;;;;;;5115384;27;20039;-85
2021/04/21 03:32:50;;;;;;;10.85;6.40;;;;;;;;;;5132142;27;20035;-84
2021/04/21 03:35:16;;;;;;;9.95;6.05;;;;;;;;;;5115003;27;20055;-85
2021/04/21 03:38:01;;;;;;;9.65;6.65;;;;;;;;;;5115027;27;20130;-85
2021/04/21 03:40:27;;;;;;;11.20;6.28;;;;;;;;;;5133409;27;20039;-84
2021/04/21 03:42:53;;;;;;;9.70;6.20;;;;;;;;;;5115048;27;20047;-83
2021/04/21 03:45:20;;;;;;;10.48;6.60;;;;;;;;;;5114955;28;20092;-85
2021/04/21 03:47:46;;;;;;;11.00;6.72;;;;;;;;;;5131993;27;20041;-85
2021/04/21 03:50:12;;;;;;;13.55;7.72;;;;;;;;;;5132061;27;20041;-84
2021/04/21 03:52:39;;;;;;;11.25;7.40;;;;;;;;;;5132130;27;20039;-84
2021/04/21 03:55:06;;;;;;;12.38;7.20;;;;;;;;;;5132012;28;20039;-83
2021/04/21 03:57:32;;;;;;;9.75;6.82;;;;;;;;;;5114904;28;20401;-83
2021/04/21 04:00:00;;;;;;;11.30;7.53;;;;;;;;;;5132012;28;20113;-84
2021/04/21 04:02:28;;;;;;;11.38;7.45;;;;;;;;;;5131996;28;20394;-83
2021/04/21 04:04:57;;;;;;;10.57;6.68;;;;;;;;;;5131863;28;20795;-84
2021/04/21 04:07:23;;;;;;;10.70;7.32;;;;;;;;;;5132988;27;20043;-84
2021/04/21 04:09:49;;;;;;;12.57;8.90;;;;;;;;;;5131896;28;20119;-84
2021/04/21 04:12:15;;;;;;;13.95;8.15;;;;;;;;;;5131826;28;20063;-84
2021/04/21 04:14:41;;;;;;;16.85;8.20;;;;;;;;;;5131726;28;20063;-85
2021/04/21 04:17:07;;;;;;;14.75;8.70;;;;;;;;;;5114511;28;20035;-85
2021/04/21 04:19:35;;;;;;;13.05;8.32;;;;;;;;;;5132013;28;20462;-85
2021/04/21 04:22:01;;;;;;;16.10;9.82;;;;;;;;;;5133485;27;20060;-84
2021/04/21 04:24:27;;;;;;;18.70;10.27;;;;;;;;;;5132921;27;20122;-85
2021/04/21 04:26:53;;;;;;;15.60;9.75;;;;;;;;;;5135729;27;20066;-85
2021/04/21 04:29:19;;;;;;;16.02;10.80;;;;;;;;;;5135802;27;20424;-84
2021/04/21 04:31:45;;;;;;;16.80;10.52;;;;;;;;;;5135736;27;20039;-84
2021/04/21 04:34:11;;;;;;;18.58;12.05;;;;;;;;;;5135513;27;20031;-84
2021/04/21 04:36:41;;;;;;;19.20;11.68;;;;;;;;;;5118571;27;20047;-84
2021/04/21 04:39:10;;;;;;;19.23;11.68;;;;;;;;;;5135578;27;20035;-84
2021/04/21 04:41:36;;;;;;;16.17;11.05;;;;;;;;;;5135394;27;20073;-83
2021/04/21 04:44:02;;;;;;;16.52;10.18;;;;;;;;;;5135639;27;20046;-83
2021/04/21 04:46:29;;;;;;;18.10;11.23;;;;;;;;;;5135361;27;20045;-83
2021/04/21 04:49:04;;;;;;;16.95;10.98;;;;;;;;;;5135478;27;20035;-83
2021/04/21 04:51:30;;;;;;;17.35;10.65;;;;;;;;;;5135359;27;20063;-83
2021/04/21 04:53:57;;;;;;;15.68;10.55;;;;;;;;;;5118211;27;20220;-84
2021/04/21 04:56:23;;;;;;;12.75;9.20;;;;;;;;;;5118187;27;20105;-84
2021/04/21 04:58:49;;;;;;;17.42;11.05;;;;;;;;;;5135392;27;20446;-84
2021/04/21 05:01:16;;;;;;;19.45;11.05;;;;;;;;;;5135199;27;20478;-84
2021/04/21 05:03:50;;;;;;;18.42;10.57;;;;;;;;;;5136265;27;20059;-84
2021/04/21 05:06:17;;;;;;;19.83;11.27;;;;;;;;;;5135001;27;20085;-84
2021/04/21 05:08:46;;;;;;;18.45;11.40;;;;;;;;;;5134956;27;20031;-85
2021/04/21 05:11:16;;;;;;;16.15;10.68;;;;;;;;;;5135008;27;20502;-84
2021/04/21 05:13:46;;;;;;;20.08;12.02;;;;;;;;;;5135020;27;20131;-84
2021/04/21 05:16:13;;;;;;;21.67;13.27;;;;;;;;;;5136026;27;20035;-84
2021/04/21 05:18:45;;;;;;;18.80;13.00;;;;;;;;;;5135979;27;20038;-84
2021/04/21 05:21:14;;;;;;;21.77;11.93;;;;;;;;;;5135943;27;20039;-85
2021/04/21 05:23:52;;;;;;;19.52;11.27;;;;;;;;;;5135883;27;20145;-85
2021/04/21 05:26:27;;;;;;;18.30;12.43;;;;;;;;;;5134665;27;20035;-85
2021/04/21 05:28:53;;;;;;;17.95;11.10;;;;;;;;;;5134611;27;20035;-84
2021/04/21 05:31:46;;;;;;;21.90;11.23;;;;;;;;;;5134511;27;20032;-84
2021/04/21 05:34:34;;;;;;;16.17;11.52;;;;;;;;;;5134324;27;20478;-83
2021/04/21 05:37:18;;;;;;;18.27;11.00;;;;;;;;;;5134511;27;20039;-83
2021/04/21 05:39:47;;;;;;;18.88;12.40;;;;;;;;;;5117373;27;20050;-84
2021/04/21 05:42:23;;;;;;;18.23;12.63;;;;;;;;;;5135567;27;20035;-83
2021/04/21 05:45:03;;;;;;;21.88;14.43;;;;;;;;;;5135313;27;20066;-89
2021/04/21 05:47:48;;;;;;;18.08;14.40;;;;;;;;;;5135373;27;20130;-85
2021/04/21 05:50:27;;;;;;;18.35;13.98;;;;;;;;;;5134489;27;20421;-86
2021/04/21 05:53:11;;;;;;;16.40;12.38;;;;;;;;;;5135686;27;20039;-89
2021/04/21 05:55:53;;;;;;;17.10;12.68;;;;;;;;;;5134513;27;20035;-85
2021/04/21 05:58:48;;;;;;;18.58;12.70;;;;;;;;;;5135175;27;20039;-85
2021/04/21 06:01:15;;;;;;;15.20;12.63;;;;;;;;;;5134732;27;20600;-86
2021/04/21 06:03:47;;;;;;;16.52;13.05;;;;;;;;;;5135074;27;20070;-86
2021/04/21 06:06:13;;;;;;;17.45;13.45;;;;;;;;;;5116884;27;20066;-87
2021/04/21 06:08:39;;;;;;;16.77;12.82;;;;;;;;;;5117009;27;20038;-86
2021/04/21 06:11:15;;;;;;;17.17;12.70;;;;;;;;;;5116958;27;20053;-86
2021/04/21 06:13:42;;;;;;;16.88;11.88;;;;;;;;;;5133809;27;20441;-86
2021/04/21 06:16:08;;;;;;;15.65;12.27;;;;;;;;;;5133855;27;20031;-86
2021/04/21 06:18:34;;;;;;;15.98;13.15;;;;;;;;;;5099538;27;20046;-87
2021/04/21 06:21:00;;;;;;;19.45;13.57;;;;;;;;;;5133703;27;20279;-86
2021/04/21 06:23:27;;;;;;;15.70;12.57;;;;;;;;;;5133673;27;20222;-86
2021/04/21 06:26:00;;;;;;;15.88;11.40;;;;;;;;;;5133422;27;20031;-86
2021/04/21 06:28:26;;;;;;;14.25;11.32;;;;;;;;;;5133475;27;20531;-86
2021/04/21 06:31:02;;;;;;;15.32;12.07;;;;;;;;;;5134639;27;20540;-87
2021/04/21 06:33:36;;;;;;;14.55;11.70;;;;;;;;;;5134530;27;20039;-87
2021/04/21 06:36:02;;;;;;;14.73;9.40;;;;;;;;;;5098891;27;20553;-86
2021/04/21 06:38:28;;;;;;;15.05;11.82;;;;;;;;;;5134322;27;20123;-86
2021/04/21 06:40:55;;;;;;;18.77;13.35;;;;;;;;;;5133272;27;20397;-85
2021/04/21 06:43:24;;;;;;;20.33;13.77;;;;;;;;;;5133155;27;20038;-84
2021/04/21 06:45:52;;;;;;;20.13;12.88;;;;;;;;;;5133015;27;20074;-86
2021/04/21 06:48:18;;;;;;;19.67;13.00;;;;;;;;;;5134122;27;20123;-87
2021/04/21 06:50:44;;;;;;;21.80;14.13;;;;;;;;;;5132976;27;20039;-86
2021/04/21 06:53:11;;;;;;;24.58;15.25;;;;;;;;;;5133057;27;20122;-85
2021/04/21 06:55:37;;;;;;;26.80;16.88;;;;;;;;;;5116206;27;20393;-86
2021/04/21 06:58:17;;;;;;;23.25;16.02;;;;;;;;;;5115620;27;20049;-86
2021/04/21 07:00:43;;;;;;;26.02;16.33;;;;;;;;;;5115838;27;20067;-86
2021/04/21 07:03:15;;;;;;;24.10;16.73;;;;;;;;;;5132935;27;20035;-86
2021/04/21 07:05:46;;;;;;;30.25;18.08;;;;;;;;;;5133000;27;20069;-86
2021/04/21 07:08:19;;;;;;;32.05;19.83;;;;;;;;;;5115902;27;20401;-86
2021/04/21 07:10:46;;;;;;;36.72;21.05;;;;;;;;;;5133871;27;20504;-86
2021/04/21 07:13:12;;;;;;;42.33;23.00;;;;;;;;;;5133937;27;20058;-85
2021/04/21 07:15:39;;;;;;;41.47;22.60;;;;;;;;;;5130785;27;20031;-85
2021/04/21 07:18:16;;;;;;;41.67;20.80;;;;;;;;;;5130018;27;20035;-85
2021/04/21 07:20:43;;;;;;;47.08;23.98;;;;;;;;;;5088985;27;20071;-84
2021/04/21 07:23:12;;;;;;;45.45;23.38;;;;;;;;;;5132050;27;20043;-85
2021/04/21 07:25:39;;;;;;;45.35;22.70;;;;;;;;;;5132172;27;20034;-85
2021/04/21 07:28:05;;;;;;;42.33;23.35;;;;;;;;;;5114922;27;20090;-85
2021/04/21 07:30:32;;;;;;;47.10;22.58;;;;;;;;;;5131988;27;20062;-85
2021/04/21 07:32:58;;;;;;;48.33;23.67;;;;;;;;;;5132192;27;20058;-86
2021/04/21 07:35:26;;;;;;;37.80;21.58;;;;;;;;;;5132210;27;20410;-85
2021/04/21 07:37:54;;;;;;;44.38;23.08;;;;;;;;;;5131931;27;20073;-83
2021/04/21 07:40:36;;;;;;;41.85;21.48;;;;;;;;;;5132111;27;20057;-83
2021/04/21 07:43:17;;;;;;;40.58;21.55;;;;;;;;;;5132056;27;20043;-83
2021/04/21 07:45:50;;;;;;;43.67;21.60;;;;;;;;;;5132236;27;20061;-83
2021/04/21 07:48:36;;;;;;;46.25;21.83;;;;;;;;;;5131794;27;20039;-83
2021/04/21 07:51:19;;;;;;;42.95;19.85;;;;;;;;;;5131972;27;20043;-83
2021/04/21 07:54:03;;;;;;;45.38;19.50;;;;;;;;;;5133057;27;20467;-83
2021/04/21 07:56:35;;;;;;;45.25;18.73;;;;;;;;;;5131821;27;20042;-84
2021/04/21 07:59:32;;;;;;;46.53;19.45;;;;;;;;;;5115301;27;20039;-85
2021/04/21 08:02:03;;;;;;;37.58;17.27;;;;;;;;;;5132703;27;20047;-85
2021/04/21 08:04:49;;;;;;;37.78;18.27;;;;;;;;;;5103881;28;20043;-85
2021/04/21 08:07:33;;;;;;;40.28;19.70;;;;;;;;;;5131559;28;20053;-85
2021/04/21 08:10:00;;;;;;;37.25;17.92;;;;;;;;;;5131604;28;20065;-85
2021/04/21 08:12:30;;;;;;;33.53;16.50;;;;;;;;;;5114797;28;20039;-85
2021/04/21 08:15:00;;;;;;;38.78;16.90;;;;;;;;;;5131607;28;20035;-85
2021/04/21 08:17:26;;;;;;;33.15;16.30;;;;;;;;;;5131687;28;20031;-86
2021/04/21 08:19:56;;;;;;;32.70;16.17;;;;;;;;;;5131685;28;20186;-84
2021/04/21 08:22:23;;;;;;;31.52;15.35;;;;;;;;;;5114497;28;20035;-84
2021/04/21 08:24:49;;;;;;;31.73;15.35;;;;;;;;;;5131517;28;20035;-85
2021/04/21 08:27:16;;;;;;;26.48;14.57;;;;;;;;;;5132836;27;20043;-84
2021/04/21 08:29:42;;;;;;;28.80;13.57;;;;;;;;;;5131633;28;20119;-82
2021/04/21 08:32:09;;;;;;;25.63;14.90;;;;;;;;;;5131521;28;20072;-82
2021/04/21 08:34:35;;;;;;;20.88;12.93;;;;;;;;;;5131381;28;20039;-84
2021/04/21 08:37:01;;;;;;;24.65;12.57;;;;;;;;;;5131260;28;20493;-85
2021/04/21 08:39:27;;;;;;;24.58;12.93;;;;;;;;;;5131585;28;20039;-84
2021/04/21 08:41:59;;;;;;;23.80;12.90;;;;;;;;;;5131470;28;20035;-86
2021/04/21 08:44:26;;;;;;;21.27;12.20;;;;;;;;;;5131354;28;20474;-84
2021/04/21 08:46:53;;;;;;;20.27;11.18;;;;;;;;;;5131442;28;20039;-86
2021/04/21 08:49:19;;;;;;;24.38;11.30;;;;;;;;;;5131455;28;20035;-87
2021/04/21 08:51:45;;;;;;;21.25;11.20;;;;;;;;;;5131386;28;20035;-84
2021/04/21 08:54:12;;;;;;;16.17;9.55;;;;;;;;;;5131459;28;20474;-83
2021/04/21 08:56:40;;;;;;;17.98;9.23;;;;;;;;;;5131180;28;20035;-84
2021/04/21 08:59:07;;;;;;;12.13;7.72;;;;;;;;;;5131279;28;20039;-85
2021/04/21 09:01:33;;;;;;;14.68;7.85;;;;;;;;;;5132463;27;20047;-84
2021/04/21 09:04:00;;;;;;;12.77;7.40;;;;;;;;;;5131226;28;20061;-84
2021/04/21 09:06:26;;;;;;;11.95;6.88;;;;;;;;;;5132337;27;20071;-83
2021/04/21 09:08:54;;;;;;;12.75;6.85;;;;;;;;;;5114211;28;20113;-83
2021/04/21 09:11:20;;;;;;;12.80;5.97;;;;;;;;;;5114500;28;20108;-83
2021/04/21 09:13:47;;;;;;;9.73;5.57;;;;;;;;;;5117797;27;20096;-85
2021/04/21 09:16:13;;;;;;;11.07;5.43;;;;;;;;;;5117694;27;20114;-85
2021/04/21 09:18:39;;;;;;;11.77;5.18;;;;;;;;;;5134618;27;20088;-85
2021/04/21 09:21:06;;;;;;;9.65;3.80;;;;;;;;;;5117661;27;20042;-85
2021/04/21 09:23:36;;;;;;;6.22;3.22;;;;;;;;;;5135854;27;20470;-82
2021/04/21 09:26:02;;;;;;;6.07;3.00;;;;;;;;;;5134446;27;20462;-84
2021/04/21 09:28:28;;;;;;;11.40;2.83;;;;;;;;;;5117419;27;20043;-83
2021/04/21 09:30:56;;;;;;;5.53;2.30;;;;;;;;;;5134449;27;20447;-84
2021/04/21 09:33:22;;;;;;;6.43;2.30;;;;;;;;;;5134429;27;20063;-83
2021/04/21 09:35:48;;;;;;;4.00;1.98;;;;;;;;;;5134186;27;20043;-84
2021/04/21 09:38:15;;;;;;;4.53;1.95;;;;;;;;;;5134458;27;20047;-84
2021/04/21 09:40:54;;;;;;;5.68;2.13;;;;;;;;;;5133795;27;20027;-85
2021/04/21 09:43:23;;;;;;;3.20;1.73;;;;;;;;;;5134215;27;20063;-86
2021/04/21 09:45:53;;;;;;;2.20;1.90;;;;;;;;;;5135108;27;20474;-86
2021/04/21 09:48:32;;;;;;;4.85;2.15;;;;;;;;;;5117065;27;20035;-86
2021/04/21 09:51:02;;;;;;;5.40;1.92;;;;;;;;;;5133886;27;20486;-85
2021/04/21 09:53:33;;;;;;;3.40;1.50;;;;;;;;;;5116955;27;20045;-85
2021/04/21 09:56:16;;;;;;;4.25;1.50;;;;;;;;;;5133973;27;20039;-85
2021/04/21 09:58:45;;;;;;;4.60;1.27;;;;;;;;;;5117034;27;20500;-85
2021/04/21 10:01:21;;;;;;;5.40;2.88;;;;;;;;;;5135099;27;20042;-86
2021/04/21 10:03:47;;;;;;;6.82;1.65;;;;;;;;;;5134078;27;20030;-85
2021/04/21 10:06:23;;;;;;;6.55;1.70;;;;;;;;;;5116867;27;20514;-85
2021/04/21 10:08:49;;;;;;;6.43;1.45;;;;;;;;;;5135038;27;20397;-85
2021/04/21 10:11:18;;;;;;;7.30;1.85;;;;;;;;;;5117144;27;20039;-86
2021/04/21 10:13:45;;;;;;;7.22;1.45;;;;;;;;;;5133685;27;20039;-86
2021/04/21 10:16:11;;;;;;;8.35;1.60;;;;;;;;;;5116674;27;20035;-86
2021/04/21 10:18:37;;;;;;;6.05;1.00;;;;;;;;;;5116537;27;20031;-86
2021/04/21 10:21:04;;;;;;;7.13;2.00;;;;;;;;;;5133504;27;20035;-85
2021/04/21 10:23:30;;;;;;;8.27;2.00;;;;;;;;;;5115845;27;20035;-85
2021/04/21 10:25:56;;;;;;;5.55;1.13;;;;;;;;;;5133282;27;20043;-86
2021/04/21 10:28:22;;;;;;;6.25;1.40;;;;;;;;;;5133457;27;20428;-86
2021/04/21 10:30:49;;;;;;;3.60;1.52;;;;;;;;;;5133534;27;20035;-86
2021/04/21 10:33:15;;;;;;;8.80;1.17;;;;;;;;;;5116415;27;20050;-86
2021/04/21 10:35:41;;;;;;;6.32;1.27;;;;;;;;;;5130407;27;20050;-86
2021/04/21 10:38:07;;;;;;;5.53;1.30;;;;;;;;;;5133080;27;20039;-85
2021/04/21 10:40:33;;;;;;;7.95;1.30;;;;;;;;;;5133247;27;20035;-86
2021/04/21 10:43:03;;;;;;;7.07;1.50;;;;;;;;;;5133132;27;20034;-86
2021/04/21 10:45:29;;;;;;;5.93;1.10;;;;;;;;;;5116387;27;20553;-86
2021/04/21 10:47:56;;;;;;;6.40;1.40;;;;;;;;;;5133000;27;20078;-87
2021/04/21 10:50:33;;;;;;;5.20;1.30;;;;;;;;;;5129495;27;20397;-87
2021/04/21 10:52:59;;;;;;;4.65;1.30;;;;;;;;;;5132946;27;20039;-86
2021/04/21 10:55:29;;;;;;;5.82;1.23;;;;;;;;;;5132782;27;20046;-86
2021/04/21 10:57:55;;;;;;;6.63;1.25;;;;;;;;;;5133760;27;20047;-86
2021/04/21 11:00:24;;;;;;;5.28;1.48;;;;;;;;;;5132848;27;20066;-87
2021/04/21 11:02:53;;;;;;;10.88;2.08;;;;;;;;;;5132526;27;20035;-87
2021/04/21 11:05:20;;;;;;;6.13;1.50;;;;;;;;;;5131020;27;20042;-86
2021/04/21 11:07:47;;;;;;;5.70;1.60;;;;;;;;;;5125772;27;20051;-86
2021/04/21 11:10:32;;;;;;;4.55;1.30;;;;;;;;;;5131690;27;20109;-86
2021/04/21 11:13:00;;;;;;;6.90;1.50;;;;;;;;;;5133641;27;20043;-86
2021/04/21 11:15:41;;;;;;;6.30;1.27;;;;;;;;;;5112816;27;20504;-87
2021/04/21 11:18:08;;;;;;;6.10;1.33;;;;;;;;;;5133258;27;20134;-86
2021/04/21 11:20:46;;;;;;;10.43;1.85;;;;;;;;;;5132097;27;20551;-87
2021/04/21 11:23:31;;;;;;;10.68;2.17;;;;;;;;;;5133420;27;20062;-87
2021/04/21 11:26:16;;;;;;;7.28;1.90;;;;;;;;;;5131949;27;20164;-87
2021/04/21 11:29:00;;;;;;;10.63;1.95;;;;;;;;;;5133495;27;20043;-87
2021/04/21 11:31:38;;;;;;;13.77;2.63;;;;;;;;;;5132368;27;20149;-85
2021/04/21 11:34:15;;;;;;;10.68;2.10;;;;;;;;;;5132887;27;20068;-83
2021/04/21 11:36:42;;;;;;;9.10;2.20;;;;;;;;;;5114816;27;20087;-85
2021/04/21 11:39:08;;;;;;;9.77;2.60;;;;;;;;;;5132181;27;20039;-83
2021/04/21 11:41:47;;;;;;;10.70;2.45;;;;;;;;;;5132163;27;20508;-83
2021/04/21 11:44:32;;;;;;;16.73;2.58;;;;;;;;;;5132125;27;20063;-83
2021/04/21 11:46:58;;;;;;;13.25;2.72;;;;;;;;;;5133129;27;20035;-83
2021/04/21 11:49:57;;;;;;;10.48;1.90;;;;;;;;;;5132043;27;20509;-83
2021/04/21 11:52:42;;;;;;;12.35;2.45;;;;;;;;;;5133142;27;20070;-86
2021/04/21 11:55:08;;;;;;;10.45;2.65;;;;;;;;;;5133138;27;20027;-86
2021/04/21 11:57:35;;;;;;;10.35;1.73;;;;;;;;;;5115027;28;20031;-91
2021/04/21 12:00:01;;;;;;;6.25;1.73;;;;;;;;;;5132080;28;20039;-86
2021/04/21 12:02:27;;;;;;;9.82;1.77;;;;;;;;;;5131995;28;20045;-86
2021/04/21 12:04:53;;;;;;;13.32;1.85;;;;;;;;;;5132348;28;20375;-92
2021/04/21 12:07:22;;;;;;;10.23;1.75;;;;;;;;;;5116041;28;20109;-89
2021/04/21 12:09:49;;;;;;;11.23;1.90;;;;;;;;;;5115151;28;20524;-88
2021/04/21 12:12:24;;;;;;;8.57;2.38;;;;;;;;;;5132078;28;20046;-89
2021/04/21 12:15:05;;;;;;;12.30;2.17;;;;;;;;;;5115301;28;20036;-87
2021/04/21 12:17:31;;;;;;;12.40;2.30;;;;;;;;;;5131802;28;20039;-91
2021/04/21 12:19:59;;;;;;;5.55;1.73;;;;;;;;;;5114826;28;20031;-85
2021/04/21 12:22:41;;;;;;;9.95;2.28;;;;;;;;;;5131839;28;20127;-87
2021/04/21 12:25:07;;;;;;;11.90;1.95;;;;;;;;;;5114815;28;20035;-88
2021/04/21 12:27:34;;;;;;;9.05;2.00;;;;;;;;;;5110691;28;20118;-90
2021/04/21 12:30:13;;;;;;;6.80;1.65;;;;;;;;;;5112772;28;20043;-85
2021/04/21 12:32:39;;;;;;;10.15;2.10;;;;;;;;;;5113958;28;20051;-84
2021/04/21 12:35:05;;;;;;;9.30;2.15;;;;;;;;;;5131119;28;20082;-84
2021/04/21 12:37:31;;;;;;;6.65;1.83;;;;;;;;;;5131329;28;20114;-85
2021/04/21 12:39:58;;;;;;;7.85;2.28;;;;;;;;;;5114655;28;20036;-84
2021/04/21 12:42:24;;;;;;;10.18;2.33;;;;;;;;;;5131209;28;20050;-85
2021/04/21 12:44:50;;;;;;;9.27;2.05;;;;;;;;;;5132855;27;20070;-85
2021/04/21 12:47:17;;;;;;;9.40;2.20;;;;;;;;;;5134612;27;20454;-84
2021/04/21 12:49:43;;;;;;;7.68;2.35;;;;;;;;;;5135654;27;20080;-85
2021/04/21 12:52:10;;;;;;;7.40;2.22;;;;;;;;;;5136479;27;20035;-84
2021/04/21 12:54:43;;;;;;;10.32;2.30;;;;;;;;;;5135243;27;20038;-85
2021/04/21 12:57:16;;;;;;;11.55;2.58;;;;;;;;;;5118048;27;20501;-85
2021/04/21 12:59:43;;;;;;;6.38;2.33;;;;;;;;;;5135224;27;20038;-84
2021/04/21 13:02:12;;;;;;;7.32;2.42;;;;;;;;;;5135342;27;20035;-85
2021/04/21 13:04:39;;;;;;;8.88;2.30;;;;;;;;;;5134983;27;20046;-83
2021/04/21 13:07:12;;;;;;;6.80;2.38;;;;;;;;;;5117905;27;20040;-87
2021/04/21 13:09:39;;;;;;;9.93;2.58;;;;;;;;;;5118076;27;20035;-86
2021/04/21 13:12:05;;;;;;;8.38;2.20;;;;;;;;;;5118476;27;20486;-89
2021/04/21 13:14:38;;;;;;;10.43;2.55;;;;;;;;;;5118569;27;20028;-89
2021/04/21 13:17:05;;;;;;;12.80;3.22;;;;;;;;;;5118414;27;20070;-91
2021/04/21 13:19:32;;;;;;;8.75;2.42;;;;;;;;;;5119237;27;20163;-91
2021/04/21 13:21:58;;;;;;;8.10;2.60;;;;;;;;;;5100755;27;20039;-90
2021/04/21 13:24:24;;;;;;;8.93;2.30;;;;;;;;;;5135942;27;20081;-91
2021/04/21 13:26:57;;;;;;;8.25;2.35;;;;;;;;;;5118297;27;20077;-86
2021/04/21 13:29:30;;;;;;;15.20;2.30;;;;;;;;;;5117894;27;20089;-87
2021/04/21 13:32:05;;;;;;;7.15;2.42;;;;;;;;;;5117725;27;20114;-86
2021/04/21 13:34:31;;;;;;;12.07;2.40;;;;;;;;;;5134540;27;20055;-87
2021/04/21 13:36:57;;;;;;;9.95;2.28;;;;;;;;;;5117346;27;20038;-89
2021/04/21 13:39:23;;;;;;;10.38;2.60;;;;;;;;;;5117984;27;20043;-88
2021/04/21 13:41:49;;;;;;;14.07;2.78;;;;;;;;;;5116509;27;20058;-94
2021/04/21 13:44:15;;;;;;;8.82;2.08;;;;;;;;;;5117425;27;20042;-86
2021/04/21 13:46:41;;;;;;;10.93;2.38;;;;;;;;;;5134577;27;20087;-87
2021/04/21 13:49:07;;;;;;;7.10;2.30;;;;;;;;;;5134511;27;20583;-86
2021/04/21 13:51:33;;;;;;;9.23;2.30;;;;;;;;;;5115778;27;20118;-87
2021/04/21 13:53:59;;;;;;;8.00;2.35;;;;;;;;;;5132108;27;20035;-88
2021/04/21 13:56:25;;;;;;;9.77;2.25;;;;;;;;;;5117157;27;20043;-88
2021/04/21 13:58:51;;;;;;;6.82;2.25;;;;;;;;;;5133433;27;20114;-87
2021/04/21 14:01:17;;;;;;;5.95;2.28;;;;;;;;;;5117125;27;20082;-88
2021/04/21 14:03:43;;;;;;;6.57;2.00;;;;;;;;;;5134184;27;20059;-87
2021/04/21 14:06:09;;;;;;;6.03;1.90;;;;;;;;;;5116935;27;20038;-87
2021/04/21 14:08:35;;;;;;;6.40;1.80;;;;;;;;;;5131805;27;20665;-88
2021/04/21 14:11:01;;;;;;;6.88;2.00;;;;;;;;;;5131980;27;20084;-86
2021/04/21 14:13:27;;;;;;;7.60;1.70;;;;;;;;;;5116303;27;20039;-87
2021/04/21 14:15:53;;;;;;;6.97;1.90;;;;;;;;;;5133636;27;20272;-88
2021/04/21 14:18:21;;;;;;;10.13;1.90;;;;;;;;;;5116682;27;20043;-88
2021/04/21 14:20:49;;;;;;;6.85;1.58;;;;;;;;;;5099196;27;20482;-88
2021/04/21 14:23:15;;;;;;;7.88;2.10;;;;;;;;;;5133732;27;20063;-89
2021/04/21 14:25:41;;;;;;;7.00;1.67;;;;;;;;;;5133669;27;20027;-88
2021/04/21 14:28:08;;;;;;;4.60;1.30;;;;;;;;;;5116461;27;20077;-88
2021/04/21 14:30:34;;;;;;;8.65;1.80;;;;;;;;;;5133474;27;20038;-88
2021/04/21 14:33:00;;;;;;;11.43;2.05;;;;;;;;;;5133527;27;20035;-88
2021/04/21 14:35:26;;;;;;;4.85;1.60;;;;;;;;;;5133287;27;20051;-88
2021/04/21 14:37:52;;;;;;;10.65;1.60;;;;;;;;;;5133239;27;20429;-87
2021/04/21 14:40:18;;;;;;;8.15;1.65;;;;;;;;;;5116296;27;20114;-87
2021/04/21 14:42:44;;;;;;;6.32;1.67;;;;;;;;;;5134206;27;20087;-86
2021/04/21 14:45:11;;;;;;;9.27;2.00;;;;;;;;;;5132481;27;20110;-86
2021/04/21 14:47:37;;;;;;;10.60;2.03;;;;;;;;;;5132934;27;20039;-88